Time;durP1;ratioP1;P1;durP2;ratioP2;P2;SDS_P1;SDS_P2;PMS_P1;PMS_P2;Temp;Humidity;BMP_temperature;BMP_pressure;BME280_temperature;BME280_humidity;BME280_pressure;Samples;Min_cycle;Max_cycle;Signal;HPM_P1;HPM_P2
2021/01/27 00:01:44;;;;;;;2.60;1.40;;;23.00;29.70;;;;;;5074963;28;20232;-37
2021/01/27 00:04:09;;;;;;;1.77;1.40;;;22.90;29.90;;;;;;5074214;28;20265;-35
2021/01/27 00:06:35;;;;;;;1.50;1.40;;;22.90;29.90;;;;;;5074152;28;20683;-37
2021/01/27 00:09:01;;;;;;;1.60;1.50;;;22.90;29.50;;;;;;5074466;28;20257;-32
2021/01/27 00:11:27;;;;;;;1.90;1.70;;;22.90;29.40;;;;;;5074688;28;20205;-34
2021/01/27 00:13:53;;;;;;;1.47;1.37;;;23.00;30.00;;;;;;5073404;28;20200;-38
2021/01/27 00:16:19;;;;;;;2.10;1.40;;;22.90;30.00;;;;;;5073306;28;20205;-33
2021/01/27 00:18:45;;;;;;;2.50;1.50;;;22.90;29.90;;;;;;5074196;28;20193;-30
2021/01/27 00:21:11;;;;;;;1.73;1.30;;;22.90;30.00;;;;;;5074555;28;20595;-34
2021/01/27 00:23:37;;;;;;;1.97;1.53;;;22.90;29.90;;;;;;5073580;28;20208;-37
2021/01/27 00:26:03;;;;;;;1.87;1.40;;;22.90;30.00;;;;;;5072549;28;20283;-37
2021/01/27 00:28:28;;;;;;;1.67;1.40;;;22.90;29.90;;;;;;5073954;28;20212;-34
2021/01/27 00:30:54;;;;;;;2.67;1.53;;;22.90;29.70;;;;;;5074307;28;20224;-35
2021/01/27 00:33:20;;;;;;;1.20;1.10;;;22.90;29.40;;;;;;5073644;28;20226;-30
2021/01/27 00:35:46;;;;;;;1.47;1.33;;;22.90;29.40;;;;;;5071058;28;20661;-35
2021/01/27 00:38:12;;;;;;;1.40;1.30;;;22.90;29.40;;;;;;5073725;28;20208;-37
2021/01/27 00:40:38;;;;;;;2.23;1.53;;;23.00;29.30;;;;;;5073310;28;20240;-38
2021/01/27 00:43:04;;;;;;;1.70;1.43;;;23.00;29.30;;;;;;5073424;28;20200;-33
2021/01/27 00:45:30;;;;;;;1.63;1.53;;;22.90;29.20;;;;;;5074605;28;20223;-38
2021/01/27 00:47:56;;;;;;;1.50;1.23;;;22.90;29.20;;;;;;5073297;28;20422;-39
2021/01/27 00:50:22;;;;;;;1.90;1.40;;;22.90;29.10;;;;;;5074679;28;20240;-38
2021/01/27 00:52:48;;;;;;;1.43;1.30;;;22.90;29.10;;;;;;5072610;28;20201;-34
2021/01/27 00:55:13;;;;;;;2.57;1.40;;;22.90;29.10;;;;;;5074295;28;20644;-41
2021/01/27 00:57:39;;;;;;;1.50;1.40;;;22.90;29.10;;;;;;5072667;28;20254;-32
2021/01/27 01:00:05;;;;;;;2.43;1.50;;;22.90;29.30;;;;;;5073214;28;20224;-34
2021/01/27 01:02:32;;;;;;;2.73;1.73;;;22.90;29.70;;;;;;5074240;28;20208;-34
2021/01/27 01:04:58;;;;;;;1.77;1.40;;;22.90;29.40;;;;;;5072655;28;20208;-40
2021/01/27 01:07:24;;;;;;;1.33;1.23;;;22.80;29.70;;;;;;5072972;28;20585;-36
2021/01/27 01:09:50;;;;;;;2.10;1.37;;;22.90;29.90;;;;;;5072976;28;20224;-31
2021/01/27 01:12:15;;;;;;;1.60;1.40;;;22.90;29.60;;;;;;5073256;28;20208;-34
2021/01/27 01:14:41;;;;;;;1.67;1.40;;;22.90;29.80;;;;;;5072336;28;20216;-37
2021/01/27 01:17:07;;;;;;;2.17;1.50;;;22.90;29.70;;;;;;5073245;28;20196;-41
2021/01/27 01:19:33;;;;;;;1.57;1.47;;;22.90;29.80;;;;;;5073192;28;20227;-34
2021/01/27 01:21:59;;;;;;;1.67;1.57;;;22.90;29.80;;;;;;5073461;28;20239;-39
2021/01/27 01:24:25;;;;;;;1.63;1.53;;;22.90;29.80;;;;;;5072312;28;20583;-39
2021/01/27 01:26:51;;;;;;;2.40;1.60;;;22.90;29.80;;;;;;5073323;28;20200;-29
2021/01/27 01:29:17;;;;;;;1.77;1.43;;;22.90;29.50;;;;;;5067939;28;20217;-39
2021/01/27 01:31:43;;;;;;;2.77;1.70;;;22.90;29.80;;;;;;5063101;28;20207;-39
2021/01/27 01:34:09;;;;;;;1.40;1.30;;;22.90;29.40;;;;;;5071783;28;20204;-35
2021/01/27 01:36:35;;;;;;;1.93;1.43;;;22.90;29.40;;;;;;5072687;28;20571;-38
2021/01/27 01:39:00;;;;;;;2.00;1.40;;;22.90;29.40;;;;;;5071700;28;20684;-33
2021/01/27 01:41:26;;;;;;;1.70;1.57;;;22.90;29.40;;;;;;5072680;28;20241;-37
2021/01/27 01:43:52;;;;;;;2.57;1.53;;;22.90;29.50;;;;;;5072695;28;20213;-36
2021/01/27 01:46:18;;;;;;;2.50;1.30;;;22.90;29.40;;;;;;5073469;28;20210;-35
2021/01/27 01:48:44;;;;;;;1.70;1.60;;;22.90;29.30;;;;;;5071905;28;20197;-32
2021/01/27 01:51:10;;;;;;;1.40;1.30;;;22.90;29.30;;;;;;5071513;28;20679;-41
2021/01/27 01:53:36;;;;;;;1.80;1.50;;;22.90;29.30;;;;;;5071347;28;20205;-44
2021/01/27 01:56:02;;;;;;;2.30;1.47;;;22.90;29.30;;;;;;5073124;28;20212;-33
2021/01/27 01:58:28;;;;;;;1.80;1.40;;;22.90;29.30;;;;;;5065223;28;20727;-34
2021/01/27 02:00:54;;;;;;;2.40;1.70;;;22.90;29.20;;;;;;5072390;28;20227;-31
2021/01/27 02:03:20;;;;;;;1.60;1.50;;;22.90;29.30;;;;;;5071547;28;20200;-31
2021/01/27 02:05:45;;;;;;;1.97;1.63;;;22.90;29.90;;;;;;5073063;28;20197;-32
2021/01/27 02:08:11;;;;;;;1.47;1.37;;;22.90;29.40;;;;;;5071972;28;20206;-32
2021/01/27 02:10:37;;;;;;;1.43;1.30;;;22.90;29.30;;;;;;5072180;28;20223;-32
2021/01/27 02:13:03;;;;;;;2.72;1.30;;;22.90;29.40;;;;;;5071021;28;20258;-40
2021/01/27 02:15:29;;;;;;;1.30;1.20;;;22.90;29.50;;;;;;5071784;28;20207;-36
2021/01/27 02:17:55;;;;;;;1.40;1.30;;;22.90;29.70;;;;;;5072244;28;20638;-38
2021/01/27 02:20:21;;;;;;;1.65;1.45;;;22.90;29.70;;;;;;5072477;28;20229;-34
2021/01/27 02:22:47;;;;;;;2.10;1.37;;;22.90;29.50;;;;;;5070642;28;20201;-33
2021/01/27 02:25:13;;;;;;;1.30;1.20;;;22.90;29.70;;;;;;5073055;28;20211;-34
2021/01/27 02:27:39;;;;;;;1.80;1.30;;;22.90;29.70;;;;;;5071432;28;20200;-32
2021/01/27 02:30:04;;;;;;;1.30;1.20;;;22.90;29.70;;;;;;5071011;28;20232;-43
2021/01/27 02:32:30;;;;;;;1.33;1.20;;;22.90;29.80;;;;;;5070773;28;20755;-35
2021/01/27 02:34:57;;;;;;;2.20;1.30;;;22.90;29.50;;;;;;5070748;28;20212;-35
2021/01/27 02:37:22;;;;;;;3.30;1.80;;;22.90;29.50;;;;;;5071458;28;20204;-30
2021/01/27 02:39:48;;;;;;;1.57;1.20;;;22.90;29.50;;;;;;5071765;28;20347;-28
2021/01/27 02:42:14;;;;;;;1.70;1.60;;;22.90;29.60;;;;;;5071166;28;20704;-29
2021/01/27 02:44:40;;;;;;;1.63;1.50;;;22.90;29.60;;;;;;5070778;28;20203;-36
2021/01/27 02:47:06;;;;;;;1.53;1.30;;;22.90;29.50;;;;;;5072312;28;20218;-42
2021/01/27 02:49:32;;;;;;;1.50;1.40;;;22.90;29.60;;;;;;5070721;28;20227;-37
2021/01/27 02:51:58;;;;;;;2.73;1.40;;;22.90;29.50;;;;;;5071904;28;20208;-43
2021/01/27 02:54:24;;;;;;;1.40;1.30;;;22.90;29.40;;;;;;5071218;28;20224;-37
2021/01/27 02:56:50;;;;;;;1.30;1.20;;;22.90;29.50;;;;;;5072499;28;20692;-38
2021/01/27 02:59:16;;;;;;;1.20;1.10;;;22.90;29.40;;;;;;5070255;28;20223;-39
2021/01/27 03:01:42;;;;;;;1.30;1.20;;;22.90;29.40;;;;;;5071357;28;20239;-38
2021/01/27 03:04:07;;;;;;;1.47;1.20;;;22.80;29.40;;;;;;5070742;28;20201;-35
2021/01/27 03:06:33;;;;;;;1.93;1.50;;;22.80;29.40;;;;;;5071513;28;20211;-40
2021/01/27 03:08:59;;;;;;;1.17;1.10;;;22.80;29.40;;;;;;5070967;28;20580;-41
2021/01/27 03:11:25;;;;;;;1.77;1.23;;;22.90;29.50;;;;;;5070757;28;20608;-35
2021/01/27 03:13:51;;;;;;;1.80;1.20;;;22.90;29.50;;;;;;5069860;28;20825;-33
2021/01/27 03:16:17;;;;;;;1.20;1.10;;;22.90;29.70;;;;;;5071347;28;20201;-33
2021/01/27 03:18:43;;;;;;;1.33;1.17;;;22.90;29.80;;;;;;5070631;28;20225;-37
2021/01/27 03:21:09;;;;;;;2.00;1.30;;;22.90;29.70;;;;;;5068943;28;20290;-33
2021/01/27 03:23:35;;;;;;;1.30;1.20;;;22.90;29.80;;;;;;5070212;28;20204;-38
2021/01/27 03:26:01;;;;;;;1.57;1.30;;;22.90;29.80;;;;;;5071415;28;20201;-39
2021/01/27 03:28:26;;;;;;;1.37;1.10;;;22.90;29.80;;;;;;5071082;28;20564;-41
2021/01/27 03:30:52;;;;;;;1.27;1.17;;;22.80;29.70;;;;;;5060977;28;20681;-38
2021/01/27 03:33:18;;;;;;;1.60;1.40;;;22.80;29.50;;;;;;5069531;28;20287;-31
2021/01/27 03:35:44;;;;;;;1.53;1.30;;;22.80;29.50;;;;;;5070145;28;20197;-35
2021/01/27 03:38:10;;;;;;;1.43;1.30;;;22.80;29.50;;;;;;5067983;28;20212;-35
2021/01/27 03:40:36;;;;;;;1.30;1.10;;;22.80;29.50;;;;;;5070827;28;20228;-29
2021/01/27 03:43:02;;;;;;;1.43;1.20;;;22.80;29.50;;;;;;5070446;28;20255;-37
2021/01/27 03:45:28;;;;;;;1.30;1.20;;;22.90;29.60;;;;;;5071431;28;20207;-31
2021/01/27 03:47:54;;;;;;;1.57;1.10;;;22.90;29.70;;;;;;5070341;28;20205;-32
2021/01/27 03:50:20;;;;;;;1.60;1.50;;;22.90;29.70;;;;;;5069602;28;20224;-34
2021/01/27 03:52:46;;;;;;;1.30;1.20;;;22.90;29.60;;;;;;5069765;28;20208;-31
2021/01/27 03:55:12;;;;;;;1.23;1.13;;;22.90;29.60;;;;;;5070853;28;20618;-35
2021/01/27 03:57:38;;;;;;;1.50;1.40;;;22.90;29.60;;;;;;5070039;28;20930;-31
2021/01/27 04:00:03;;;;;;;1.97;1.17;;;22.90;29.60;;;;;;5071345;28;20251;-34
2021/01/27 04:02:29;;;;;;;1.37;1.27;;;22.90;29.60;;;;;;5068919;28;20241;-37
2021/01/27 04:04:55;;;;;;;1.42;1.27;;;22.90;29.60;;;;;;5071278;28;20201;-34
2021/01/27 04:07:21;;;;;;;1.40;1.30;;;22.80;29.60;;;;;;5070307;28;20208;-35
2021/01/27 04:09:47;;;;;;;1.20;1.10;;;22.80;30.10;;;;;;5071606;28;20217;-35
2021/01/27 04:12:13;;;;;;;2.60;1.30;;;22.80;29.50;;;;;;5069306;28;20518;-38
2021/01/27 04:14:39;;;;;;;1.20;1.10;;;22.80;29.60;;;;;;5070629;28;20684;-40
2021/01/27 04:17:05;;;;;;;1.40;1.30;;;22.90;29.60;;;;;;5070266;28;20209;-37
2021/01/27 04:19:31;;;;;;;1.10;1.00;;;22.80;29.60;;;;;;5070593;28;20236;-33
2021/01/27 04:21:57;;;;;;;1.50;1.40;;;22.90;29.70;;;;;;5069673;28;20233;-33
2021/01/27 04:24:22;;;;;;;2.07;1.30;;;22.80;30.50;;;;;;5071190;28;20201;-32
2021/01/27 04:26:48;;;;;;;3.30;1.20;;;22.80;31.60;;;;;;5070545;28;20814;-34
2021/01/27 04:29:14;;;;;;;3.43;1.40;;;22.80;31.10;;;;;;5069691;28;20224;-37
2021/01/27 04:31:40;;;;;;;3.17;1.20;;;22.80;30.40;;;;;;5069521;28;20211;-30
2021/01/27 04:34:06;;;;;;;2.63;1.20;;;22.80;30.30;;;;;;5073415;28;20201;-38
2021/01/27 04:36:32;;;;;;;3.87;1.10;;;22.80;30.10;;;;;;5074533;28;20208;-34
2021/01/27 04:38:58;;;;;;;3.73;1.30;;;22.80;30.20;;;;;;5073626;28;20225;-42
2021/01/27 04:41:24;;;;;;;5.03;1.20;;;22.80;30.30;;;;;;5073502;28;20231;-40
2021/01/27 04:43:50;;;;;;;5.90;1.30;;;22.80;30.30;;;;;;5074431;28;20661;-32
2021/01/27 04:46:16;;;;;;;2.35;1.20;;;22.80;30.40;;;;;;5073292;28;20197;-39
2021/01/27 04:48:42;;;;;;;2.07;1.17;;;22.80;30.40;;;;;;5073652;28;20231;-38
2021/01/27 04:51:07;;;;;;;2.63;1.37;;;22.80;30.30;;;;;;5073412;28;20204;-39
2021/01/27 04:53:33;;;;;;;2.57;1.30;;;22.80;30.40;;;;;;5073780;28;20255;-39
2021/01/27 04:55:59;;;;;;;1.20;1.10;;;22.80;30.40;;;;;;5072623;28;20580;-35
2021/01/27 04:58:25;;;;;;;1.30;1.20;;;22.80;30.30;;;;;;5073976;28;20228;-35
2021/01/27 05:00:51;;;;;;;5.10;1.30;;;22.80;30.30;;;;;;5073236;28;20225;-35
2021/01/27 05:03:17;;;;;;;2.03;1.20;;;22.90;30.30;;;;;;5073648;28;20216;-37
2021/01/27 05:05:43;;;;;;;1.35;1.25;;;22.80;30.10;;;;;;5073170;28;20201;-39
2021/01/27 05:08:09;;;;;;;3.23;1.37;;;22.80;30.20;;;;;;5073258;28;20297;-35
2021/01/27 05:10:35;;;;;;;2.00;1.40;;;22.80;30.20;;;;;;5072784;28;20209;-36
2021/01/27 05:13:01;;;;;;;2.30;1.20;;;22.80;30.20;;;;;;5073874;28;20213;-33
2021/01/27 05:15:27;;;;;;;2.30;1.30;;;22.80;30.20;;;;;;5072355;28;20715;-33
2021/01/27 05:17:53;;;;;;;2.23;1.20;;;22.90;30.20;;;;;;5072997;28;20201;-36
2021/01/27 05:20:19;;;;;;;2.67;1.30;;;22.90;30.20;;;;;;5072803;28;20201;-41
2021/01/27 05:22:45;;;;;;;1.30;1.20;;;22.90;30.20;;;;;;5072143;28;20199;-45
2021/01/27 05:25:11;;;;;;;1.60;1.10;;;22.90;30.10;;;;;;5073816;28;20193;-35
2021/01/27 05:27:37;;;;;;;1.47;1.03;;;22.90;30.70;;;;;;5072829;28;20641;-42
2021/01/27 05:30:03;;;;;;;1.30;1.10;;;22.90;30.00;;;;;;5073009;28;20232;-35
2021/01/27 05:32:28;;;;;;;1.50;1.40;;;22.90;30.00;;;;;;5069719;28;20209;-38
2021/01/27 05:34:54;;;;;;;1.23;1.13;;;22.90;30.00;;;;;;5073639;28;20204;-31
2021/01/27 05:37:20;;;;;;;1.20;1.10;;;22.80;29.90;;;;;;5071540;28;20543;-39
2021/01/27 05:39:46;;;;;;;1.97;1.17;;;22.80;30.50;;;;;;5073917;28;20720;-39
2021/01/27 05:42:12;;;;;;;2.03;1.10;;;22.90;30.00;;;;;;5061926;22;20245;-34
2021/01/27 05:44:38;;;;;;;1.33;1.20;;;22.80;30.00;;;;;;5009098;28;20218;-37
2021/01/27 05:47:04;;;;;;;2.10;1.27;;;22.80;30.10;;;;;;5006128;28;20195;-39
2021/01/27 05:49:30;;;;;;;1.20;1.10;;;22.80;30.10;;;;;;5009522;28;20223;-40
2021/01/27 05:51:56;;;;;;;1.60;1.20;;;22.80;30.20;;;;;;5009235;28;20248;-35
2021/01/27 05:54:22;;;;;;;3.47;1.50;;;22.80;30.20;;;;;;5009157;28;20231;-33
2021/01/27 05:56:48;;;;;;;1.47;1.23;;;22.80;30.20;;;;;;5009881;28;20276;-40
2021/01/27 05:59:13;;;;;;;1.30;1.20;;;22.80;30.20;;;;;;5007314;28;21293;-39
2021/01/27 06:01:40;;;;;;;1.50;1.20;;;22.80;30.20;;;;;;5010047;28;20232;-33
2021/01/27 06:04:05;;;;;;;1.33;1.07;;;22.80;30.30;;;;;;5009905;28;20360;-45
2021/01/27 06:06:31;;;;;;;2.70;1.30;;;22.80;30.30;;;;;;5009972;28;20206;-35
2021/01/27 06:08:57;;;;;;;1.10;1.00;;;22.80;30.30;;;;;;5009625;28;20231;-44
2021/01/27 06:11:23;;;;;;;4.60;1.30;;;22.90;30.50;;;;;;5009349;28;20268;-49
2021/01/27 06:13:49;;;;;;;1.53;1.20;;;22.80;30.40;;;;;;5008620;28;20655;-43
2021/01/27 06:16:15;;;;;;;1.07;1.03;;;22.80;30.50;;;;;;5007874;28;20200;-43
2021/01/27 06:18:41;;;;;;;0.90;0.90;;;22.80;30.40;;;;;;5009317;28;20236;-45
2021/01/27 06:21:07;;;;;;;2.43;1.20;;;22.80;30.40;;;;;;4994333;28;20220;-42
2021/01/27 06:23:33;;;;;;;1.17;1.07;;;22.80;30.60;;;;;;5000337;28;20200;-47
2021/01/27 06:25:59;;;;;;;1.20;1.10;;;22.80;30.50;;;;;;4993461;28;20234;-29
2021/01/27 06:28:25;;;;;;;1.20;1.10;;;22.90;30.60;;;;;;5009619;28;20725;-29
2021/01/27 06:30:51;;;;;;;1.43;1.27;;;22.80;30.40;;;;;;5009058;28;20204;-46
2021/01/27 06:33:16;;;;;;;1.20;1.10;;;22.80;30.40;;;;;;5007237;28;20211;-43
2021/01/27 06:35:42;;;;;;;1.13;1.03;;;22.80;30.30;;;;;;5009057;28;20232;-42
2021/01/27 06:38:08;;;;;;;3.30;1.37;;;22.70;31.40;;;;;;5007959;28;20227;-46
2021/01/27 06:40:34;;;;;;;2.27;1.30;;;22.70;32.00;;;;;;5009215;28;20214;-46
2021/01/27 06:43:00;;;;;;;1.63;1.20;;;22.80;31.20;;;;;;5008659;28;20267;-33
2021/01/27 06:45:26;;;;;;;1.47;1.30;;;22.80;30.90;;;;;;5009361;28;20599;-44
2021/01/27 06:47:52;;;;;;;4.00;1.27;;;22.80;30.80;;;;;;5008741;28;20230;-36
2021/01/27 06:50:18;;;;;;;3.17;1.50;;;22.80;30.50;;;;;;5009641;28;20226;-34
2021/01/27 06:52:44;;;;;;;2.90;1.40;;;22.80;30.70;;;;;;5009024;28;20214;-41
2021/01/27 06:55:10;;;;;;;2.30;1.10;;;22.80;30.60;;;;;;4995761;28;20215;-29
2021/01/27 06:57:36;;;;;;;1.77;1.13;;;22.80;30.30;;;;;;5003362;28;20230;-45
2021/01/27 07:00:01;;;;;;;1.47;1.37;;;22.80;30.40;;;;;;5008856;28;20569;-39
2021/01/27 07:02:27;;;;;;;1.73;1.30;;;22.80;30.20;;;;;;5008233;28;20237;-32
2021/01/27 07:04:53;;;;;;;2.63;1.20;;;22.90;31.00;;;;;;5008202;28;20704;-45
2021/01/27 07:07:19;;;;;;;1.40;1.30;;;22.80;30.20;;;;;;5008869;28;20244;-43
2021/01/27 07:09:45;;;;;;;2.47;1.60;;;22.90;30.20;;;;;;5001514;28;20204;-43
2021/01/27 07:12:11;;;;;;;1.50;1.30;;;22.90;30.30;;;;;;4989629;28;20269;-42
2021/01/27 07:14:37;;;;;;;3.83;1.30;;;23.00;30.20;;;;;;4989848;28;20200;-34
2021/01/27 07:17:03;;;;;;;3.55;1.58;;;23.00;30.80;;;;;;5004794;28;20207;-31
2021/01/27 07:19:29;;;;;;;2.23;1.23;;;23.00;31.30;;;;;;5007202;28;20309;-40
2021/01/27 07:21:55;;;;;;;1.55;1.20;;;23.10;30.40;;;;;;5005881;28;20245;-40
2021/01/27 07:24:21;;;;;;;4.13;1.90;;;23.00;30.90;;;;;;5007974;28;20210;-47
2021/01/27 07:26:47;;;;;;;4.10;1.97;;;23.00;32.90;;;;;;5012845;28;20203;-38
2021/01/27 07:29:13;;;;;;;5.70;2.00;;;23.00;32.70;;;;;;5009280;28;20298;-43
2021/01/27 07:31:38;;;;;;;9.37;2.17;;;23.00;33.40;;;;;;5008692;28;20203;-47
2021/01/27 07:34:04;;;;;;;5.77;2.30;;;22.90;32.30;;;;;;5008908;28;20666;-42
2021/01/27 07:36:32;;;;;;;4.13;1.80;;;22.80;32.10;;;;;;4998937;28;20215;-35
2021/01/27 07:38:58;;;;;;;6.23;1.80;;;22.80;32.70;;;;;;5007465;28;20302;-35
2021/01/27 07:41:24;;;;;;;4.47;1.50;;;22.90;33.90;;;;;;4995483;28;20248;-39
2021/01/27 07:43:50;;;;;;;4.57;1.80;;;22.90;33.40;;;;;;5009181;28;20205;-48
2021/01/27 07:46:16;;;;;;;2.87;1.40;;;22.90;33.60;;;;;;5008659;28;20204;-33
2021/01/27 07:48:42;;;;;;;5.27;2.17;;;23.00;33.90;;;;;;5004038;28;20226;-38
2021/01/27 07:51:08;;;;;;;5.27;1.93;;;19.80;25.60;;;;;;5009092;28;20568;-44
2021/01/27 07:53:34;;;;;;;3.13;2.00;;;16.70;25.50;;;;;;5007956;28;20229;-45
2021/01/27 07:55:59;;;;;;;3.90;1.87;;;17.10;31.60;;;;;;5008522;28;20405;-43
2021/01/27 07:58:25;;;;;;;3.60;1.90;;;19.60;31.80;;;;;;5006596;28;20760;-44
2021/01/27 08:00:51;;;;;;;2.60;1.43;;;20.90;31.30;;;;;;4989007;28;20228;-34
2021/01/27 08:03:17;;;;;;;2.73;1.77;;;21.70;31.60;;;;;;4998465;28;20203;-40
2021/01/27 08:05:43;;;;;;;3.30;1.60;;;22.20;32.30;;;;;;5008454;28;20205;-38
2021/01/27 08:08:09;;;;;;;5.07;1.70;;;22.50;31.80;;;;;;5009863;28;20246;-27
2021/01/27 08:10:35;;;;;;;3.77;2.00;;;22.70;31.90;;;;;;5010384;28;20205;-35
2021/01/27 08:13:01;;;;;;;3.43;1.60;;;22.80;31.60;;;;;;5004951;28;20200;-42
2021/01/27 08:15:27;;;;;;;2.73;1.97;;;22.90;31.30;;;;;;5009634;28;20220;-37
2021/01/27 08:17:54;;;;;;;2.40;1.50;;;23.00;32.30;;;;;;5028295;28;20230;-39
2021/01/27 08:20:19;;;;;;;3.97;2.00;;;23.30;32.80;;;;;;5020701;28;20207;-33
2021/01/27 08:22:45;;;;;;;2.77;1.67;;;23.20;32.50;;;;;;5009963;28;20251;-45
2021/01/27 08:25:11;;;;;;;3.47;1.97;;;23.20;33.00;;;;;;5010337;28;20202;-46
2021/01/27 08:27:38;;;;;;;6.37;2.00;;;23.20;32.70;;;;;;5010366;28;20231;-41
2021/01/27 08:30:05;;;;;;;4.57;1.70;;;23.20;33.50;;;;;;5012102;28;20199;-39
2021/01/27 08:32:30;;;;;;;3.27;1.90;;;23.30;33.20;;;;;;5010304;28;20257;-40
2021/01/27 08:34:56;;;;;;;5.77;1.73;;;23.20;33.20;;;;;;5012895;28;20211;-39
2021/01/27 08:37:22;;;;;;;4.30;1.60;;;23.20;32.50;;;;;;5086105;28;20220;-34
2021/01/27 08:39:48;;;;;;;3.27;1.40;;;23.10;33.80;;;;;;5050499;28;20573;-38
2021/01/27 08:42:14;;;;;;;2.70;1.50;;;23.10;33.50;;;;;;5009096;28;20740;-34
2021/01/27 08:44:40;;;;;;;5.13;1.87;;;23.10;33.60;;;;;;5007721;28;20225;-37
2021/01/27 08:47:06;;;;;;;4.87;1.73;;;23.10;33.50;;;;;;5008103;28;20215;-34
2021/01/27 08:49:32;;;;;;;6.37;2.10;;;23.00;33.90;;;;;;5011312;28;20335;-37
2021/01/27 08:51:58;;;;;;;5.97;1.80;;;23.00;33.90;;;;;;5011203;28;20203;-40
2021/01/27 08:54:24;;;;;;;3.83;1.73;;;22.90;33.00;;;;;;5011643;28;20218;-41
2021/01/27 08:56:50;;;;;;;2.67;1.73;;;22.90;33.10;;;;;;5011127;28;20202;-32
2021/01/27 08:59:15;;;;;;;3.13;1.80;;;22.90;33.60;;;;;;5011696;28;20206;-45
2021/01/27 09:01:41;;;;;;;5.77;2.00;;;22.80;33.90;;;;;;5011016;28;20237;-41
2021/01/27 09:04:07;;;;;;;3.60;1.63;;;22.80;33.90;;;;;;5011334;28;20570;-41
2021/01/27 09:06:34;;;;;;;2.87;1.70;;;22.80;34.10;;;;;;5011560;28;20203;-44
2021/01/27 09:09:00;;;;;;;2.73;1.40;;;22.80;34.20;;;;;;5010746;28;20566;-44
2021/01/27 09:11:25;;;;;;;3.70;2.13;;;22.80;34.30;;;;;;5010872;28;20259;-45
2021/01/27 09:13:53;;;;;;;2.83;1.50;;;22.80;34.20;;;;;;5010788;28;20214;-43
2021/01/27 09:16:19;;;;;;;5.30;2.37;;;22.70;34.20;;;;;;5010705;28;20201;-39
2021/01/27 09:18:44;;;;;;;2.30;1.60;;;22.70;34.20;;;;;;5010013;28;20234;-46
2021/01/27 09:21:10;;;;;;;2.47;1.57;;;22.70;34.20;;;;;;5003892;28;20238;-40
2021/01/27 09:23:36;;;;;;;3.87;1.40;;;22.70;34.10;;;;;;5004671;28;20263;-40
2021/01/27 09:26:03;;;;;;;1.70;1.57;;;22.70;34.20;;;;;;4995451;28;20268;-40
2021/01/27 09:28:29;;;;;;;2.67;1.50;;;22.70;34.40;;;;;;5011095;28;20234;-46
2021/01/27 09:30:55;;;;;;;2.77;1.63;;;22.60;34.60;;;;;;5009816;28;20207;-33
2021/01/27 09:33:21;;;;;;;4.80;2.07;;;22.50;33.10;;;;;;5005934;28;20199;-40
2021/01/27 09:35:47;;;;;;;3.13;1.50;;;22.40;31.40;;;;;;5008240;28;20214;-42
2021/01/27 09:38:13;;;;;;;2.97;2.17;;;22.70;32.00;;;;;;5010676;28;20227;-41
2021/01/27 09:40:39;;;;;;;3.00;1.57;;;22.70;32.90;;;;;;5008380;28;20238;-36
2021/01/27 09:43:05;;;;;;;4.80;2.03;;;22.80;31.50;;;;;;5010756;28;20215;-39
2021/01/27 09:45:31;;;;;;;3.70;1.90;;;22.90;33.00;;;;;;5007802;28;20208;-36
2021/01/27 09:47:57;;;;;;;5.00;1.70;;;23.00;32.80;;;;;;5009411;28;20218;-34
2021/01/27 09:50:23;;;;;;;3.77;1.77;;;23.10;32.40;;;;;;5018397;28;20210;-40
2021/01/27 09:52:49;;;;;;;8.07;1.90;;;23.20;33.20;;;;;;5006426;28;20214;-39
2021/01/27 09:55:15;;;;;;;4.57;1.80;;;23.10;32.80;;;;;;5009001;28;20573;-41
2021/01/27 09:57:41;;;;;;;4.70;1.80;;;23.10;32.80;;;;;;5009744;28;20226;-34
2021/01/27 10:00:07;;;;;;;6.37;2.70;;;23.00;33.10;;;;;;5006671;28;20203;-43
2021/01/27 10:02:32;;;;;;;4.77;2.33;;;23.00;31.60;;;;;;5001679;28;20257;-41
2021/01/27 10:04:58;;;;;;;5.30;1.90;;;22.90;31.30;;;;;;5009127;28;20200;-30
2021/01/27 10:07:25;;;;;;;3.37;1.50;;;23.00;31.00;;;;;;5010455;28;20229;-39
2021/01/27 10:09:51;;;;;;;5.97;2.37;;;23.00;32.00;;;;;;5009064;28;20211;-38
2021/01/27 10:12:17;;;;;;;4.33;2.10;;;23.00;30.70;;;;;;5007863;28;20211;-45
2021/01/27 10:14:42;;;;;;;3.00;1.70;;;23.00;31.80;;;;;;5003070;28;20203;-41
2021/01/27 10:17:08;;;;;;;4.70;1.87;;;23.20;32.10;;;;;;5010505;28;20218;-45
2021/01/27 10:19:34;;;;;;;4.67;1.70;;;23.10;32.40;;;;;;5069116;28;20202;-43
2021/01/27 10:22:01;;;;;;;4.10;1.63;;;23.00;32.30;;;;;;5004531;28;20287;-38
2021/01/27 10:24:26;;;;;;;5.67;2.10;;;23.10;32.40;;;;;;5003568;28;20686;-43
2021/01/27 10:26:52;;;;;;;3.97;1.87;;;23.10;32.40;;;;;;5002974;28;20230;-40
2021/01/27 10:29:18;;;;;;;6.47;2.05;;;23.10;33.30;;;;;;5018851;28;20218;-42
2021/01/27 10:31:44;;;;;;;5.10;1.77;;;23.20;32.50;;;;;;4996609;28;20252;-39
2021/01/27 10:34:10;;;;;;;3.53;1.57;;;23.00;32.40;;;;;;5009208;28;20264;-36
2021/01/27 10:36:36;;;;;;;4.80;1.70;;;23.00;32.40;;;;;;5009126;28;20231;-37
2021/01/27 10:39:02;;;;;;;3.53;1.60;;;23.00;32.30;;;;;;5009309;28;20199;-44
2021/01/27 10:41:28;;;;;;;5.73;2.00;;;22.90;32.90;;;;;;5009494;28;20268;-40
2021/01/27 10:43:54;;;;;;;6.77;1.87;;;22.90;32.70;;;;;;5009993;28;20705;-37
2021/01/27 10:46:20;;;;;;;5.17;2.10;;;22.90;32.20;;;;;;5009863;28;20215;-46
2021/01/27 10:48:46;;;;;;;4.27;2.10;;;22.90;32.20;;;;;;5009502;28;20207;-42
2021/01/27 10:51:12;;;;;;;4.37;1.90;;;22.90;32.70;;;;;;5009549;28;20214;-40
2021/01/27 10:53:38;;;;;;;3.73;1.83;;;22.90;32.00;;;;;;5009416;28;20630;-44
2021/01/27 10:56:04;;;;;;;5.67;1.90;;;23.00;31.30;;;;;;5009785;28;20226;-39
2021/01/27 10:58:30;;;;;;;3.10;1.70;;;22.90;31.80;;;;;;5009764;28;20207;-47
2021/01/27 11:00:56;;;;;;;3.60;1.70;;;22.90;32.20;;;;;;5009503;28;20203;-45
2021/01/27 11:03:21;;;;;;;3.83;1.80;;;22.90;32.30;;;;;;5008937;28;20213;-33
2021/01/27 11:05:47;;;;;;;3.47;1.60;;;22.90;32.20;;;;;;5008339;28;20271;-39
2021/01/27 11:08:14;;;;;;;2.10;1.40;;;22.90;32.60;;;;;;5001847;28;20294;-40
2021/01/27 11:10:40;;;;;;;3.75;1.73;;;22.90;32.30;;;;;;5009160;28;20666;-43
2021/01/27 11:13:06;;;;;;;3.23;2.10;;;22.90;32.20;;;;;;5007858;28;20210;-36
2021/01/27 11:15:32;;;;;;;3.50;1.80;;;22.90;32.30;;;;;;5009518;28;20547;-39
2021/01/27 11:17:58;;;;;;;2.30;1.60;;;22.90;32.20;;;;;;5007732;28;20238;-34
2021/01/27 11:20:24;;;;;;;2.53;1.77;;;22.90;32.20;;;;;;5008554;28;20222;-35
2021/01/27 11:22:49;;;;;;;7.43;1.70;;;23.00;32.30;;;;;;5002024;28;20245;-41
2021/01/27 11:25:16;;;;;;;4.07;1.70;;;22.90;31.80;;;;;;5002754;28;20214;-41
2021/01/27 11:27:41;;;;;;;2.80;1.77;;;23.00;31.60;;;;;;5007298;28;20222;-41
2021/01/27 11:30:07;;;;;;;4.23;1.60;;;23.00;32.00;;;;;;5000333;28;20652;-41
2021/01/27 11:32:33;;;;;;;5.83;1.70;;;23.00;32.30;;;;;;5001361;28;20199;-41
2021/01/27 11:34:59;;;;;;;3.20;1.43;;;23.00;31.80;;;;;;5008670;28;20199;-41
2021/01/27 11:37:25;;;;;;;2.80;1.43;;;23.00;32.30;;;;;;5007044;28;20233;-41
2021/01/27 11:39:51;;;;;;;4.20;2.13;;;23.00;32.30;;;;;;5009085;28;20210;-41
2021/01/27 11:42:17;;;;;;;2.83;1.55;;;23.10;32.30;;;;;;5007305;28;20231;-41
2021/01/27 11:44:43;;;;;;;4.10;2.03;;;23.10;32.40;;;;;;5008991;28;20205;-41
2021/01/27 11:47:09;;;;;;;3.10;1.60;;;23.00;31.80;;;;;;5007413;28;20272;-41
2021/01/27 11:49:35;;;;;;;3.13;1.80;;;23.00;31.80;;;;;;5008945;28;20677;-41
2021/01/27 11:52:03;;;;;;;2.23;1.30;;;23.00;31.40;;;;;;5007391;28;20202;-41
2021/01/27 11:54:29;;;;;;;2.65;1.45;;;23.00;31.40;;;;;;5003375;28;20270;-41
2021/01/27 11:56:55;;;;;;;3.73;1.70;;;23.00;31.90;;;;;;5003318;28;20248;-41
2021/01/27 11:59:20;;;;;;;2.00;1.40;;;23.00;31.30;;;;;;5001010;28;20255;-41
2021/01/27 12:01:46;;;;;;;3.90;1.60;;;23.00;32.10;;;;;;5001307;28;20253;-42
2021/01/27 12:04:12;;;;;;;3.22;1.67;;;22.90;32.30;;;;;;5007620;28;20658;-41
2021/01/27 12:06:38;;;;;;;2.17;1.90;;;22.80;32.10;;;;;;5008261;28;20223;-43
2021/01/27 12:09:04;;;;;;;4.13;1.77;;;22.90;32.20;;;;;;5001751;28;20209;-40
2021/01/27 12:11:30;;;;;;;2.53;1.30;;;22.80;32.80;;;;;;5007887;28;20214;-41
2021/01/27 12:13:56;;;;;;;2.53;1.67;;;22.80;32.10;;;;;;5008502;28;20207;-41
2021/01/27 12:16:22;;;;;;;1.63;1.40;;;22.70;32.00;;;;;;5007959;28;20223;-41
2021/01/27 12:18:48;;;;;;;4.60;1.67;;;22.70;32.00;;;;;;5008194;28;20232;-41
2021/01/27 12:21:14;;;;;;;3.25;1.38;;;22.70;32.00;;;;;;5007905;28;20234;-41
2021/01/27 12:23:40;;;;;;;3.50;1.50;;;22.70;32.10;;;;;;5007700;28;20559;-43
2021/01/27 12:26:06;;;;;;;3.13;1.50;;;22.70;32.00;;;;;;5006365;28;20231;-41
2021/01/27 12:28:31;;;;;;;5.03;1.70;;;22.80;32.20;;;;;;4998454;28;20648;-41
2021/01/27 12:30:57;;;;;;;3.13;1.50;;;22.90;32.20;;;;;;5005280;28;20655;-41
2021/01/27 12:33:25;;;;;;;2.83;1.60;;;23.00;32.10;;;;;;5000665;28;20591;-41
2021/01/27 12:35:51;;;;;;;2.53;1.73;;;22.90;32.10;;;;;;4996353;28;20230;-41
2021/01/27 12:38:17;;;;;;;1.87;1.70;;;22.90;32.00;;;;;;5007779;28;20266;-41
2021/01/27 12:40:44;;;;;;;1.60;1.27;;;22.90;31.90;;;;;;5007250;28;20249;-41